Larry Drummond — WDG3073 — position and weather

sailwx.info

Track history (hours):
 
Tides and Currents Weather Stations Pressure Air Temp Water Temp Dewpoint Dewpoint Depression Visibility Wind Speed Wind Dir Waves Ship Positions

Larry Drummond

Owner: INGRAM BARGE COMPANY, NASHVILLE, TN. More information available from US FCC via Universal Licensing System and Coast Guard Vessel Documentation Center.

Last reported at 2015-May-22 04:19 UTC. Time now 2015-May-23 04:17 UTC.
Position N 38°42' W 083°47'.

Length 70 m; draft 9 m.

Type: Towing. MMSI: 367522210.

Date/timePositionNaut miles runAvg speedWind from/ knotsBaromVisibWave heightAir tempDewpointWater temp
2015-May-22 04:19N 38°42' W 083°47'4 5.0
2015-May-22 03:29N 38°45' W 083°51'11 5.2
2015-May-22 01:22N 38°46' W 084°05'4 3.4
2015-May-22 00:04N 38°48' W 084°11'1 2.2
2015-May-21 23:32N 38°48' W 084°12'5 4.6
2015-May-21 22:33N 38°52' W 084°14'5 4.6
2015-May-21 21:33N 38°56' W 084°17'5 4.9
2015-May-21 20:33N 39°01' W 084°19'5 4.5
2015-May-21 19:33N 39°03' W 084°24'0 0.4
2015-May-21 18:33N 39°03' W 084°25'4 3.4
2015-May-21 17:31N 39°06' W 084°26'3 2.9
2015-May-21 16:33N 39°06' W 084°30'4 3.8
2015-May-21 15:32N 39°05' W 084°35'0 0.2
2015-May-21 14:33N 39°05' W 084°35'0 0.0
2015-May-21 13:33N 39°05' W 084°35'0 0.0
2015-May-21 12:33N 39°05' W 084°35'0 0.4
2015-May-21 11:33N 39°05' W 084°35'0 0.1
2015-May-21 10:33N 39°05' W 084°35'0 0.2
2015-May-21 09:33N 39°05' W 084°36'2 1.9
2015-May-21 08:33N 39°05' W 084°38'5 4.7
2015-May-21 07:33N 39°08' W 084°43'4 3.7
2015-May-21 06:33N 39°07' W 084°47'  
Track history (hours):
 
Tides and Currents Weather Stations Pressure Air Temp Water Temp Dewpoint Dewpoint Depression Visibility Wind Speed Wind Dir Waves Ship Positions

Larry Drummond

Owner: INGRAM BARGE COMPANY, NASHVILLE, TN. More information available from US FCC via Universal Licensing System and Coast Guard Vessel Documentation Center.

Last reported at 2015-May-22 04:19 UTC. Time now 2015-May-23 04:17 UTC.
Position N 38°42' W 083°47'.

Length 70 m; draft 9 m.

Type: Towing. MMSI: 367522210.

Date/timePositionNaut miles runAvg speedWind from/ knotsBaromVisibWave heightAir tempDewpointWater temp
2015-May-22 04:19N 38°42' W 083°47'4 5.0
2015-May-22 03:29N 38°45' W 083°51'11 5.2
2015-May-22 01:22N 38°46' W 084°05'4 3.4
2015-May-22 00:04N 38°48' W 084°11'1 2.2
2015-May-21 23:32N 38°48' W 084°12'5 4.6
2015-May-21 22:33N 38°52' W 084°14'5 4.6
2015-May-21 21:33N 38°56' W 084°17'5 4.9
2015-May-21 20:33N 39°01' W 084°19'5 4.5
2015-May-21 19:33N 39°03' W 084°24'0 0.4
2015-May-21 18:33N 39°03' W 084°25'4 3.4
2015-May-21 17:31N 39°06' W 084°26'3 2.9
2015-May-21 16:33N 39°06' W 084°30'4 3.8
2015-May-21 15:32N 39°05' W 084°35'0 0.2
2015-May-21 14:33N 39°05' W 084°35'0 0.0
2015-May-21 13:33N 39°05' W 084°35'0 0.0
2015-May-21 12:33N 39°05' W 084°35'0 0.4
2015-May-21 11:33N 39°05' W 084°35'0 0.1
2015-May-21 10:33N 39°05' W 084°35'0 0.2
2015-May-21 09:33N 39°05' W 084°36'2 1.9
2015-May-21 08:33N 39°05' W 084°38'5 4.7
2015-May-21 07:33N 39°08' W 084°43'4 3.7
2015-May-21 06:33N 39°07' W 084°47'  

Dump ship's entire track history